Main page
METAR-TAF:

METAR-TAF

Airports :

Sialkot International Airport

Sialkot, Pakistan

latitude: 32-32N, longitude: 74-22E, elevation: 255 m

Current weather observation

The report was made 21 minutes ago, at 16:55 UTC
Calm wind
Temperature 24°C
Humidity 69%
Pressure 1010 hPa
Visibility: 4000 m
smoke

METAR: OPST 211655Z 00000KT 4000 FU NSC 24/18 Q1010 NOSIG RH68

Time: 22:16 (17:16 UTC)

Forecast

The report was made 13 hours and 31 minutes ago, at 03:45 UTC
Forecast valid from 21 at 06 UTC to 22 at 12 UTC
Wind 6 kt from the Southwest
Visibility: 4000 m
smoke
Temporary
from 21 at 08 UTC to 21 at 12 UTC
Wind 4 kt from the Southwest
Visibility: 5000 m
haze
Temporary
from 22 at 00 UTC to 22 at 03 UTC
Wind 3 kt from variable directions
Visibility: 2500 m
Scattered clouds at a height of 10000 ft
mist

TAF: OPST 210345Z 2106/2212 23006KT 4000 FU NSC TX32/2110Z TN17/2201Z TEMPO 2108/2112 23004KT 5000 HZ TEMPO 2200/2203 VRB03KT 2500 BR SCT100

Weather observations and forecasts of more than 4000 airports (METAR and TAF reports).

The available stations are represented by yellow and red dots on the map.

Hover mouse over dot to see the name of the station.

Then click to see weather observations and forecasts.

To change the map : click on the green buttons with a black cross to zoom in, on the green button with a dash to zoom out, or on the green arrows for adjacent maps.


METAR-TAF: